Time;durP1;ratioP1;P1;durP2;ratioP2;P2;SDS_P1;SDS_P2;PMS_P1;PMS_P2;Temp;Humidity;BMP_temperature;BMP_pressure;BME280_temperature;BME280_humidity;BME280_pressure;Samples;Min_cycle;Max_cycle;Signal;HPM_P1;HPM_P2
2022/01/08 00:01:34;;;;;;;8.02;6.10;;;0.90;99.90;;;;;;5038050;28;20425;-50
2022/01/08 00:03:59;;;;;;;10.32;5.78;;;0.90;99.90;;;;;;5039704;28;20029;-49
2022/01/08 00:06:25;;;;;;;10.27;6.15;;;0.90;99.90;;;;;;5039094;28;20027;-51
2022/01/08 00:08:50;;;;;;;9.85;6.55;;;0.90;99.90;;;;;;5038188;28;20018;-54
2022/01/08 00:11:20;;;;;;;8.50;5.25;;;0.80;99.90;;;;;;5038748;28;20044;-52
2022/01/08 00:13:46;;;;;;;8.07;4.85;;;0.80;99.90;;;;;;5039345;28;20025;-50
2022/01/08 00:16:12;;;;;;;7.07;4.93;;;0.80;99.90;;;;;;5038950;28;20470;-51
2022/01/08 00:18:38;;;;;;;8.07;5.28;;;0.80;99.90;;;;;;5037172;28;20109;-52
2022/01/08 00:21:06;;;;;;;6.82;5.13;;;0.80;99.90;;;;;;5038944;28;20025;-52
2022/01/08 00:23:32;;;;;;;8.25;5.03;;;0.80;99.90;;;;;;5038221;28;20068;-56
2022/01/08 00:25:58;;;;;;;9.98;5.65;;;0.80;99.90;;;;;;5038243;28;20024;-50
2022/01/08 00:28:25;;;;;;;8.68;5.25;;;0.80;99.90;;;;;;5038059;28;20060;-50
2022/01/08 00:30:51;;;;;;;6.60;4.93;;;0.80;99.90;;;;;;5037017;28;20021;-48
2022/01/08 00:33:17;;;;;;;8.00;5.38;;;0.80;99.90;;;;;;5037521;28;20372;-50
2022/01/08 00:35:42;;;;;;;9.45;5.70;;;0.90;99.90;;;;;;5037211;28;20021;-53
2022/01/08 00:38:08;;;;;;;11.23;5.93;;;0.90;99.90;;;;;;5037819;28;20112;-51
2022/01/08 00:40:33;;;;;;;9.45;5.78;;;0.90;99.90;;;;;;5037183;28;20037;-51
2022/01/08 00:42:59;;;;;;;8.48;6.05;;;0.90;99.90;;;;;;5038394;28;20075;-50
2022/01/08 00:45:25;;;;;;;11.75;6.07;;;0.90;99.90;;;;;;5037624;28;20029;-47
2022/01/08 00:47:50;;;;;;;7.15;5.45;;;0.90;99.90;;;;;;5037170;28;20095;-49
2022/01/08 00:50:16;;;;;;;10.07;6.28;;;0.90;99.90;;;;;;5039572;28;20358;-55
2022/01/08 00:52:42;;;;;;;9.85;6.03;;;0.90;99.90;;;;;;5038297;28;20518;-53
2022/01/08 00:55:09;;;;;;;7.65;5.78;;;0.90;99.90;;;;;;5038042;28;20331;-50
2022/01/08 00:57:36;;;;;;;6.68;5.57;;;0.90;99.90;;;;;;5038473;28;20379;-49
2022/01/08 01:00:02;;;;;;;9.38;6.30;;;1.00;99.90;;;;;;5038647;28;20530;-52
2022/01/08 01:02:28;;;;;;;9.23;5.40;;;0.90;99.90;;;;;;5037825;28;20044;-51
2022/01/08 01:04:54;;;;;;;9.98;6.28;;;1.00;99.90;;;;;;5039251;28;20030;-54
2022/01/08 01:07:19;;;;;;;11.32;6.53;;;1.00;99.90;;;;;;5037638;28;20024;-53
2022/01/08 01:09:45;;;;;;;8.10;5.75;;;1.00;99.90;;;;;;5038793;28;20808;-50
2022/01/08 01:12:11;;;;;;;8.57;6.65;;;1.00;99.90;;;;;;5036991;28;20040;-53
2022/01/08 01:14:39;;;;;;;11.77;6.75;;;1.00;99.90;;;;;;5033208;28;20501;-52
2022/01/08 01:17:05;;;;;;;13.27;6.82;;;1.00;99.90;;;;;;5037519;28;20083;-54
2022/01/08 01:19:31;;;;;;;10.70;7.03;;;1.00;99.90;;;;;;5037500;28;20598;-53
2022/01/08 01:21:59;;;;;;;11.98;7.40;;;1.00;99.90;;;;;;5035297;28;20033;-49
2022/01/08 01:24:26;;;;;;;9.48;7.50;;;1.00;99.90;;;;;;5037422;28;20017;-52
2022/01/08 01:30:00;;;;;;;10.50;7.25;;;1.00;99.90;;;;;;5037188;28;20036;-52
2022/01/08 01:43:36;;;;;;;11.05;8.25;;;1.00;99.90;;;;;;5037344;28;20040;-48
2022/01/08 01:48:46;;;;;;;10.00;8.77;;;1.00;99.90;;;;;;5037552;28;20056;-56
2022/01/08 01:51:22;;;;;;;12.75;9.85;;;1.00;99.90;;;;;;5038154;28;20033;-51
2022/01/08 01:53:48;;;;;;;12.65;7.93;;;1.10;99.90;;;;;;5038133;28;20194;-51
2022/01/08 01:56:18;;;;;;;10.80;8.55;;;1.10;99.90;;;;;;5037795;28;20399;-50
2022/01/08 01:58:44;;;;;;;10.52;7.55;;;1.10;99.90;;;;;;5035248;28;20613;-53
2022/01/08 02:01:10;;;;;;;13.30;8.75;;;1.10;99.90;;;;;;5035432;28;20055;-55
2022/01/08 02:03:36;;;;;;;10.70;8.48;;;1.10;99.90;;;;;;5035101;28;20064;-53
2022/01/08 02:06:02;;;;;;;13.65;8.80;;;1.10;99.90;;;;;;5039158;28;20490;-53
2022/01/08 02:08:29;;;;;;;11.05;7.60;;;1.10;99.90;;;;;;5040021;28;20060;-48
2022/01/08 02:10:55;;;;;;;10.52;7.80;;;1.10;99.90;;;;;;5041510;28;20068;-52
2022/01/08 02:13:25;;;;;;;10.85;7.90;;;1.10;99.90;;;;;;5040313;28;20483;-53
2022/01/08 02:15:53;;;;;;;10.20;7.85;;;1.10;99.90;;;;;;5040986;28;20033;-53
2022/01/08 02:18:27;;;;;;;11.05;8.40;;;1.10;99.90;;;;;;5039801;28;20021;-48
2022/01/08 02:28:34;;;;;;;14.68;8.23;;;1.10;99.90;;;;;;5008994;28;20046;-55
2022/01/08 02:31:00;;;;;;;10.52;7.93;;;1.10;99.90;;;;;;5011457;28;20018;-51
2022/01/08 02:33:26;;;;;;;14.57;8.25;;;1.10;99.90;;;;;;5011889;28;20034;-55
2022/01/08 02:35:52;;;;;;;9.35;7.20;;;1.10;99.90;;;;;;5004208;28;20030;-53
2022/01/08 02:38:18;;;;;;;10.35;8.07;;;1.10;99.90;;;;;;5001545;28;20085;-54
2022/01/08 02:40:51;;;;;;;11.48;7.95;;;1.10;99.90;;;;;;5024486;22;20492;-48
2022/01/08 02:43:17;;;;;;;10.38;8.07;;;1.10;99.90;;;;;;4999545;28;20389;-48
2022/01/08 02:45:42;;;;;;;9.48;7.45;;;1.10;99.90;;;;;;5001068;28;20432;-47
2022/01/08 02:48:08;;;;;;;10.18;7.45;;;1.10;99.90;;;;;;5001033;28;20075;-47
2022/01/08 02:50:34;;;;;;;8.40;7.35;;;1.10;99.90;;;;;;4999843;28;20049;-49
2022/01/08 02:52:59;;;;;;;9.32;7.22;;;1.10;99.90;;;;;;4982609;28;20038;-51
2022/01/08 02:55:25;;;;;;;10.25;7.72;;;1.10;99.90;;;;;;5000281;28;20023;-49
2022/01/08 02:57:50;;;;;;;8.77;6.95;;;1.10;99.90;;;;;;4999746;28;20033;-47
2022/01/08 03:00:19;;;;;;;13.35;6.90;;;1.10;99.90;;;;;;4999896;28;20054;-48
2022/01/08 03:02:50;;;;;;;9.70;6.82;;;1.10;99.90;;;;;;4999360;28;20050;-50
2022/01/08 03:05:16;;;;;;;7.55;6.72;;;1.10;99.90;;;;;;5000242;28;20434;-48
2022/01/08 03:07:44;;;;;;;7.80;6.45;;;1.10;99.90;;;;;;4999812;28;20046;-50
2022/01/08 03:10:12;;;;;;;9.65;6.38;;;1.10;99.90;;;;;;5000205;28;20034;-47
2022/01/08 03:12:41;;;;;;;8.27;6.15;;;1.10;99.90;;;;;;4999807;28;20104;-51
2022/01/08 03:15:15;;;;;;;7.75;6.07;;;1.00;99.90;;;;;;5001127;28;20037;-52
2022/01/08 03:17:41;;;;;;;8.02;6.15;;;1.10;99.90;;;;;;4999394;28;20052;-49
2022/01/08 03:20:11;;;;;;;12.48;6.30;;;1.10;99.90;;;;;;5000482;28;20026;-51
2022/01/08 03:22:38;;;;;;;10.93;6.25;;;1.10;99.90;;;;;;4982626;28;20022;-51
2022/01/08 03:25:06;;;;;;;9.13;6.35;;;1.10;99.90;;;;;;4999298;28;20560;-47
2022/01/08 03:27:32;;;;;;;9.43;5.85;;;1.10;99.90;;;;;;4999381;28;20034;-48
2022/01/08 03:29:58;;;;;;;9.38;5.43;;;1.10;99.90;;;;;;4999994;28;20109;-47
2022/01/08 03:32:24;;;;;;;7.55;6.22;;;1.10;99.90;;;;;;5000339;28;20029;-50
2022/01/08 03:34:51;;;;;;;11.70;6.85;;;1.20;99.90;;;;;;4999173;28;20063;-48
2022/01/08 03:37:17;;;;;;;9.80;7.13;;;1.10;99.90;;;;;;4999214;28;20108;-50
2022/01/08 03:39:43;;;;;;;10.23;6.40;;;1.10;99.90;;;;;;5000025;28;20049;-53
2022/01/08 03:42:09;;;;;;;9.27;6.47;;;1.10;99.90;;;;;;4999943;28;20022;-51
2022/01/08 03:44:35;;;;;;;8.65;5.80;;;1.10;99.90;;;;;;4999918;28;20346;-51
2022/01/08 03:49:45;;;;;;;8.82;6.25;;;1.10;99.90;;;;;;4999009;28;20553;-48
2022/01/08 03:52:12;;;;;;;9.00;6.43;;;1.10;99.90;;;;;;4999662;28;20076;-48
2022/01/08 03:54:38;;;;;;;7.28;6.30;;;1.10;99.90;;;;;;4999429;28;20026;-50
2022/01/08 03:57:04;;;;;;;14.43;7.38;;;1.10;99.90;;;;;;4999473;28;20053;-50
2022/01/08 03:59:30;;;;;;;9.30;7.15;;;1.10;99.90;;;;;;4998856;28;20053;-50
2022/01/08 04:01:55;;;;;;;10.75;6.57;;;1.20;99.90;;;;;;5000396;28;20017;-49
2022/01/08 04:04:21;;;;;;;9.27;6.32;;;1.10;99.90;;;;;;4998545;28;20056;-48
2022/01/08 04:06:46;;;;;;;10.40;7.72;;;1.20;99.90;;;;;;4999717;28;20034;-52
2022/01/08 04:09:13;;;;;;;10.32;7.20;;;1.20;99.90;;;;;;4998995;28;20018;-48
2022/01/08 04:11:39;;;;;;;13.07;7.85;;;1.20;99.90;;;;;;4999699;28;20446;-47
2022/01/08 04:14:05;;;;;;;10.15;7.22;;;1.20;99.90;;;;;;4998692;28;20022;-49
2022/01/08 04:16:33;;;;;;;9.70;7.15;;;1.10;99.90;;;;;;5000326;28;20402;-51
2022/01/08 04:18:59;;;;;;;9.75;6.80;;;1.10;99.90;;;;;;4999933;28;20356;-47
2022/01/08 04:23:52;;;;;;;8.90;7.68;;;1.10;99.90;;;;;;5000263;28;20026;-51
2022/01/08 04:26:18;;;;;;;13.07;8.23;;;1.10;99.90;;;;;;4980928;28;20029;-49
2022/01/08 04:28:44;;;;;;;9.98;7.18;;;1.10;99.90;;;;;;4998350;28;20483;-49
2022/01/08 04:31:10;;;;;;;11.90;8.02;;;1.10;99.90;;;;;;4998630;28;20018;-46
2022/01/08 04:33:35;;;;;;;11.35;8.15;;;1.10;99.90;;;;;;4999059;28;20125;-48
2022/01/08 04:36:01;;;;;;;10.10;7.78;;;1.10;99.90;;;;;;4997292;28;20033;-48
2022/01/08 04:38:26;;;;;;;12.05;8.32;;;1.10;99.90;;;;;;4998603;28;20064;-52
2022/01/08 04:40:52;;;;;;;13.35;8.73;;;1.10;99.90;;;;;;4998314;28;20033;-47
2022/01/08 04:43:17;;;;;;;12.57;8.13;;;1.10;99.90;;;;;;4998448;28;20361;-50
2022/01/08 04:45:43;;;;;;;16.02;8.27;;;1.10;99.90;;;;;;4999295;28;20026;-49
2022/01/08 04:48:09;;;;;;;12.25;8.38;;;1.10;99.90;;;;;;4998044;28;20049;-50
2022/01/08 04:50:35;;;;;;;13.00;8.77;;;1.10;99.90;;;;;;4997742;28;20476;-50
2022/01/08 04:53:00;;;;;;;14.95;10.23;;;1.10;99.90;;;;;;4998373;28;20033;-46
2022/01/08 04:55:26;;;;;;;16.40;10.40;;;1.20;99.90;;;;;;4998690;28;20073;-47
2022/01/08 04:57:53;;;;;;;22.55;11.32;;;1.20;99.90;;;;;;4998547;28;20105;-48
2022/01/08 05:00:20;;;;;;;19.85;12.40;;;1.20;99.90;;;;;;4998611;28;20033;-47
2022/01/08 05:02:46;;;;;;;16.20;11.25;;;1.20;99.90;;;;;;4998733;28;20029;-48
2022/01/08 05:05:12;;;;;;;15.60;10.40;;;1.20;99.90;;;;;;4998910;28;20030;-47
2022/01/08 05:07:38;;;;;;;16.88;11.00;;;1.20;99.90;;;;;;4998336;28;20049;-49
2022/01/08 05:10:05;;;;;;;16.65;10.35;;;1.20;99.90;;;;;;5000466;28;20395;-50
2022/01/08 05:12:31;;;;;;;15.27;10.43;;;1.20;99.90;;;;;;4997254;28;20034;-46
2022/01/08 05:14:57;;;;;;;15.70;10.27;;;1.20;99.90;;;;;;4998670;28;20080;-47
2022/01/08 05:17:29;;;;;;;18.25;10.70;;;1.20;99.90;;;;;;4998292;28;20030;-47
2022/01/08 05:19:57;;;;;;;18.60;10.40;;;1.20;99.90;;;;;;4998600;28;20015;-47
2022/01/08 05:22:26;;;;;;;13.65;9.40;;;1.20;99.90;;;;;;4997903;28;20242;-49
2022/01/08 05:24:55;;;;;;;13.43;8.80;;;1.10;99.90;;;;;;4997825;28;20014;-51
2022/01/08 05:27:20;;;;;;;17.00;9.30;;;1.10;99.90;;;;;;4997970;28;20092;-48
2022/01/08 05:29:49;;;;;;;16.10;10.75;;;1.20;99.90;;;;;;4998137;28;20073;-51
2022/01/08 05:32:16;;;;;;;12.80;8.90;;;1.20;99.90;;;;;;4998151;28;20395;-51
2022/01/08 05:34:47;;;;;;;12.57;8.88;;;1.10;99.90;;;;;;4997579;28;20415;-49
2022/01/08 05:37:14;;;;;;;14.75;9.13;;;1.20;99.90;;;;;;4997633;28;20064;-53
2022/01/08 05:39:40;;;;;;;14.48;9.60;;;1.20;99.90;;;;;;4997644;28;20037;-48
2022/01/08 05:42:06;;;;;;;13.20;10.00;;;1.20;99.90;;;;;;5001172;28;20388;-48
2022/01/08 05:44:32;;;;;;;11.15;8.68;;;1.20;99.90;;;;;;5001782;28;20033;-48
2022/01/08 05:47:01;;;;;;;14.48;9.48;;;1.20;99.90;;;;;;5002893;28;20400;-49
2022/01/08 05:49:26;;;;;;;17.92;10.23;;;1.20;99.90;;;;;;5001286;28;20033;-47
2022/01/08 05:51:52;;;;;;;15.80;9.95;;;1.30;99.90;;;;;;5002468;28;20026;-47
2022/01/08 05:54:18;;;;;;;12.95;9.30;;;1.30;99.90;;;;;;5002784;28;20549;-52
2022/01/08 05:56:43;;;;;;;12.77;8.73;;;1.30;99.90;;;;;;5001968;28;20101;-54
2022/01/08 05:59:09;;;;;;;14.05;9.38;;;1.20;99.90;;;;;;5001982;28;20471;-51
2022/01/08 06:01:35;;;;;;;17.38;9.02;;;1.20;99.90;;;;;;5001764;28;20014;-52
2022/01/08 06:04:01;;;;;;;12.18;8.55;;;1.30;99.90;;;;;;5001392;28;20026;-49
2022/01/08 06:06:27;;;;;;;15.60;8.90;;;1.30;99.90;;;;;;5000892;28;20038;-50
2022/01/08 06:08:53;;;;;;;13.13;10.13;;;1.20;99.90;;;;;;5001529;28;20545;-50
2022/01/08 06:11:18;;;;;;;15.90;10.15;;;1.30;99.90;;;;;;5001148;28;20189;-55
2022/01/08 06:13:46;;;;;;;17.48;10.35;;;1.20;99.90;;;;;;5002030;28;20105;-52
2022/01/08 06:16:12;;;;;;;12.52;9.32;;;1.30;99.90;;;;;;5000764;28;20032;-50
2022/01/08 06:18:39;;;;;;;15.68;9.68;;;1.30;99.90;;;;;;5000805;28;20105;-52
2022/01/08 06:21:07;;;;;;;15.77;9.68;;;1.30;99.90;;;;;;5001255;28;20532;-47
2022/01/08 06:23:33;;;;;;;19.02;10.65;;;1.30;99.90;;;;;;5000629;28;20030;-48
2022/01/08 06:25:59;;;;;;;16.60;10.35;;;1.30;99.90;;;;;;5000722;28;20085;-47
2022/01/08 06:28:25;;;;;;;13.93;10.23;;;1.30;99.90;;;;;;5000636;28;20101;-52
2022/01/08 06:30:52;;;;;;;13.95;9.60;;;1.30;99.90;;;;;;5000620;28;20079;-48
2022/01/08 06:33:18;;;;;;;18.10;10.68;;;1.30;99.90;;;;;;4999389;28;20027;-51
2022/01/08 06:35:45;;;;;;;19.17;10.80;;;1.30;99.90;;;;;;5002293;28;20022;-48
2022/01/08 06:38:11;;;;;;;16.70;10.25;;;1.30;99.90;;;;;;5000795;28;20487;-49
2022/01/08 06:40:37;;;;;;;21.27;11.85;;;1.30;99.90;;;;;;5000737;28;20100;-48
2022/01/08 06:43:03;;;;;;;16.83;11.65;;;1.40;99.90;;;;;;5001195;28;20046;-51
2022/01/08 06:45:28;;;;;;;15.95;10.25;;;1.40;99.90;;;;;;5001153;28;20069;-51
2022/01/08 06:47:57;;;;;;;16.33;10.55;;;1.40;99.90;;;;;;5000885;28;20049;-50
2022/01/08 06:50:22;;;;;;;16.60;9.68;;;1.40;99.90;;;;;;5000574;28;20076;-48
2022/01/08 06:52:48;;;;;;;17.52;10.40;;;1.40;99.90;;;;;;4999983;28;20053;-48
2022/01/08 06:55:13;;;;;;;13.60;9.32;;;1.40;99.90;;;;;;5001397;28;20029;-50
2022/01/08 06:57:39;;;;;;;16.30;9.68;;;1.40;99.90;;;;;;5000362;28;20022;-52
2022/01/08 07:00:05;;;;;;;15.02;9.60;;;1.40;99.90;;;;;;5001237;28;20018;-48
2022/01/08 07:02:31;;;;;;;15.50;9.60;;;1.40;99.90;;;;;;4982936;28;20106;-51
2022/01/08 07:04:57;;;;;;;15.68;9.77;;;1.40;99.90;;;;;;5000401;28;20026;-49
2022/01/08 07:07:23;;;;;;;16.25;9.55;;;1.40;99.90;;;;;;4999298;28;20391;-47
2022/01/08 07:09:48;;;;;;;14.57;9.15;;;1.40;99.90;;;;;;5000029;28;20037;-47
2022/01/08 07:12:14;;;;;;;14.05;8.98;;;1.40;99.90;;;;;;5000516;28;20031;-49
2022/01/08 07:14:40;;;;;;;14.60;9.23;;;1.40;99.90;;;;;;4999843;28;20057;-50
2022/01/08 07:17:05;;;;;;;16.20;8.02;;;1.40;99.90;;;;;;5000183;28;20108;-52
2022/01/08 07:19:31;;;;;;;13.43;8.43;;;1.40;99.90;;;;;;4999011;28;20037;-47
2022/01/08 07:21:57;;;;;;;13.05;8.25;;;1.40;99.90;;;;;;5000705;28;20426;-49
2022/01/08 07:24:22;;;;;;;10.60;8.45;;;1.40;99.90;;;;;;5000716;28;20018;-50
2022/01/08 07:26:48;;;;;;;10.68;7.90;;;1.30;99.90;;;;;;4999986;28;20168;-54
2022/01/08 07:29:13;;;;;;;16.52;8.55;;;1.40;99.90;;;;;;5000410;28;20033;-50
2022/01/08 07:31:39;;;;;;;13.80;9.10;;;1.40;99.90;;;;;;4999049;28;20030;-46
2022/01/08 07:34:05;;;;;;;18.35;9.43;;;1.40;99.90;;;;;;4982592;28;20037;-50
2022/01/08 07:36:33;;;;;;;12.75;8.25;;;1.40;99.90;;;;;;4999926;28;20153;-53
2022/01/08 07:38:58;;;;;;;13.27;8.05;;;1.40;99.90;;;;;;4999184;28;20018;-50
2022/01/08 07:41:24;;;;;;;14.20;8.40;;;1.40;99.90;;;;;;4999143;28;20507;-52
2022/01/08 07:43:50;;;;;;;12.13;8.75;;;1.40;99.90;;;;;;4999506;28;20403;-47
2022/01/08 07:46:16;;;;;;;10.43;8.45;;;1.40;99.90;;;;;;4999068;28;20034;-51
2022/01/08 07:48:42;;;;;;;15.90;9.35;;;1.40;99.90;;;;;;4998772;28;20026;-49
2022/01/08 07:51:08;;;;;;;15.15;9.05;;;1.40;99.90;;;;;;4999454;28;20400;-47
2022/01/08 07:53:34;;;;;;;14.85;9.90;;;1.40;99.90;;;;;;4999108;28;20026;-48
2022/01/08 07:55:59;;;;;;;14.60;9.90;;;1.40;99.90;;;;;;4998030;28;20395;-51
2022/01/08 07:58:25;;;;;;;16.35;9.90;;;1.50;99.90;;;;;;4997243;28;20101;-48
2022/01/08 08:00:53;;;;;;;15.43;10.10;;;1.50;99.90;;;;;;4997777;28;20030;-50
2022/01/08 08:03:20;;;;;;;15.65;9.38;;;1.50;99.90;;;;;;4997982;28;20042;-48
2022/01/08 08:05:48;;;;;;;20.75;10.20;;;1.50;99.90;;;;;;4981201;28;20133;-52
2022/01/08 08:08:19;;;;;;;15.98;9.77;;;1.50;99.90;;;;;;4996823;28;20061;-47
2022/01/08 08:10:50;;;;;;;15.75;10.40;;;1.50;99.90;;;;;;4998627;28;20041;-50
2022/01/08 08:13:16;;;;;;;17.10;11.55;;;1.50;99.90;;;;;;4997076;28;20030;-54
2022/01/08 08:15:42;;;;;;;18.25;11.57;;;1.50;99.90;;;;;;4980031;28;20030;-51
2022/01/08 08:18:07;;;;;;;18.40;11.48;;;1.50;99.90;;;;;;4998954;28;20557;-55
2022/01/08 08:20:33;;;;;;;18.65;12.18;;;1.50;99.90;;;;;;4999333;28;20044;-55
2022/01/08 08:22:59;;;;;;;15.95;11.75;;;1.50;99.90;;;;;;4999044;28;20084;-51
2022/01/08 08:25:26;;;;;;;18.35;12.13;;;1.50;99.90;;;;;;4998234;28;20038;-52
2022/01/08 08:27:55;;;;;;;21.85;13.25;;;1.60;99.90;;;;;;4997970;28;20057;-53
2022/01/08 08:30:21;;;;;;;17.52;12.63;;;1.60;99.90;;;;;;4998461;28;20065;-50
2022/01/08 08:32:47;;;;;;;21.65;13.43;;;1.60;99.90;;;;;;4998991;28;20396;-54
2022/01/08 08:35:13;;;;;;;20.77;13.85;;;1.60;99.90;;;;;;4997203;28;20026;-48
2022/01/08 08:37:40;;;;;;;20.00;12.65;;;1.60;99.90;;;;;;4997639;28;20109;-50
2022/01/08 08:40:08;;;;;;;19.95;13.82;;;1.60;99.90;;;;;;5005389;23;20052;-57
2022/01/08 08:42:34;;;;;;;19.52;12.73;;;1.60;99.90;;;;;;5005920;28;20450;-56
2022/01/08 08:44:59;;;;;;;18.85;12.07;;;1.70;99.90;;;;;;5008698;28;20026;-57
2022/01/08 08:47:25;;;;;;;19.17;12.73;;;1.70;99.90;;;;;;5008920;28;20021;-57
2022/01/08 08:49:51;;;;;;;19.63;12.63;;;1.70;99.90;;;;;;5007530;28;20033;-57
2022/01/08 08:52:16;;;;;;;17.08;12.27;;;1.70;99.90;;;;;;4998033;28;20037;-55
2022/01/08 08:54:45;;;;;;;19.63;13.63;;;1.70;99.90;;;;;;4998516;28;20077;-57
2022/01/08 08:57:10;;;;;;;21.00;12.77;;;1.70;99.90;;;;;;4998524;28;20026;-57
2022/01/08 08:59:37;;;;;;;23.67;14.02;;;1.80;99.90;;;;;;4997589;28;20073;-57
2022/01/08 09:02:03;;;;;;;17.75;12.15;;;1.80;99.90;;;;;;4998126;28;20022;-57
2022/01/08 09:04:29;;;;;;;21.45;13.63;;;1.80;99.90;;;;;;4997524;28;20030;-58
2022/01/08 09:06:57;;;;;;;20.13;12.98;;;1.80;99.90;;;;;;4998769;28;20018;-55
2022/01/08 09:09:23;;;;;;;22.20;13.65;;;1.80;99.90;;;;;;4997779;28;20034;-57
2022/01/08 09:11:49;;;;;;;22.45;12.90;;;1.80;99.90;;;;;;4997779;28;20541;-57
2022/01/08 09:14:14;;;;;;;24.38;13.73;;;1.80;99.90;;;;;;4998002;28;20514;-57
2022/01/08 09:16:45;;;;;;;20.48;12.88;;;1.90;99.90;;;;;;4997753;28;20498;-58
2022/01/08 09:19:11;;;;;;;16.73;12.30;;;1.90;99.90;;;;;;4998382;28;20117;-56
2022/01/08 09:21:36;;;;;;;19.02;11.40;;;1.90;99.90;;;;;;4998422;28;20104;-54
2022/01/08 09:24:02;;;;;;;15.38;12.40;;;1.90;99.90;;;;;;4980345;28;20030;-58
2022/01/08 09:26:31;;;;;;;20.38;11.88;;;1.90;99.90;;;;;;4997633;28;20056;-57
2022/01/08 09:28:56;;;;;;;18.00;10.85;;;1.90;99.90;;;;;;4996754;28;20062;-58
2022/01/08 09:31:24;;;;;;;17.92;10.82;;;2.00;99.90;;;;;;4997883;28;20029;-58
2022/01/08 09:33:50;;;;;;;15.88;10.32;;;2.00;99.90;;;;;;4997712;28;20073;-57
2022/01/08 09:36:15;;;;;;;17.52;10.60;;;2.00;99.90;;;;;;4997389;28;20495;-58
2022/01/08 09:38:41;;;;;;;15.07;10.50;;;2.00;99.90;;;;;;4995033;28;20527;-57
2022/01/08 09:41:07;;;;;;;17.15;10.18;;;2.00;99.90;;;;;;4996997;28;20120;-58
2022/01/08 09:43:35;;;;;;;11.73;9.32;;;2.10;99.90;;;;;;4996877;28;20403;-56
2022/01/08 09:46:00;;;;;;;16.25;10.65;;;2.10;99.90;;;;;;4998362;28;20026;-55
2022/01/08 09:48:26;;;;;;;16.75;10.10;;;2.10;99.90;;;;;;4996572;28;20057;-57
2022/01/08 09:50:52;;;;;;;14.07;9.65;;;2.10;99.90;;;;;;4997830;28;20052;-58
2022/01/08 09:53:17;;;;;;;13.25;9.27;;;2.10;99.90;;;;;;4997641;28;20142;-57
2022/01/08 09:55:43;;;;;;;13.30;8.65;;;2.20;99.90;;;;;;4997398;28;20076;-57
2022/01/08 09:58:09;;;;;;;16.40;9.85;;;2.20;99.90;;;;;;4997921;28;20041;-58
2022/01/08 10:00:38;;;;;;;14.43;9.23;;;2.20;99.90;;;;;;4997821;28;20028;-58
2022/01/08 10:03:19;;;;;;;16.48;9.05;;;2.30;99.90;;;;;;4997467;28;20110;-58
2022/01/08 10:05:45;;;;;;;12.70;8.73;;;2.30;99.90;;;;;;4996162;28;20026;-58
2022/01/08 10:08:13;;;;;;;13.18;9.60;;;2.30;99.90;;;;;;4980049;28;20121;-58
2022/01/08 10:11:05;;;;;;;11.15;8.63;;;2.30;99.90;;;;;;4980361;28;20033;-58
2022/01/08 10:13:35;;;;;;;13.65;8.05;;;2.40;99.90;;;;;;4997661;28;20026;-56
2022/01/08 10:18:49;;;;;;;14.73;8.27;;;2.50;99.90;;;;;;4997505;28;20540;-56
2022/01/08 10:21:22;;;;;;;10.75;7.78;;;2.60;99.90;;;;;;4996843;28;20704;-58
2022/01/08 10:23:52;;;;;;;17.17;9.02;;;2.60;99.90;;;;;;4996117;28;20027;-58
2022/01/08 10:26:20;;;;;;;12.15;8.48;;;2.70;99.90;;;;;;4995736;28;20041;-58
2022/01/08 10:28:46;;;;;;;15.90;9.13;;;2.80;99.90;;;;;;4998726;28;20096;-58
2022/01/08 10:31:16;;;;;;;13.73;8.45;;;2.90;99.90;;;;;;4998988;28;20026;-58
2022/01/08 10:33:46;;;;;;;13.73;8.68;;;3.00;99.90;;;;;;4998395;28;20104;-58
2022/01/08 10:36:12;;;;;;;15.00;8.18;;;3.10;99.90;;;;;;4999827;28;20022;-58
2022/01/08 10:38:38;;;;;;;11.77;8.25;;;3.10;99.90;;;;;;4999680;28;20498;-56
2022/01/08 10:41:12;;;;;;;8.82;6.60;;;3.20;99.90;;;;;;5000551;28;20034;-56
2022/01/08 10:43:38;;;;;;;15.38;8.20;;;3.20;99.90;;;;;;4999161;28;20030;-58
2022/01/08 10:46:13;;;;;;;13.52;7.90;;;3.20;99.90;;;;;;4983357;28;20018;-60
2022/01/08 10:48:43;;;;;;;13.07;7.05;;;3.20;99.90;;;;;;4999579;28;20044;-57
2022/01/08 10:51:15;;;;;;;13.43;7.78;;;3.30;99.90;;;;;;4999611;28;20021;-55
2022/01/08 10:53:53;;;;;;;10.82;6.35;;;3.30;99.90;;;;;;4999718;28;20535;-56
2022/01/08 10:56:33;;;;;;;13.48;6.72;;;3.30;99.90;;;;;;4999568;28;20083;-58
2022/01/08 10:59:20;;;;;;;9.80;6.47;;;3.30;99.90;;;;;;4998782;28;20451;-57
2022/01/08 11:02:10;;;;;;;9.18;5.97;;;3.30;99.90;;;;;;4999652;28;20444;-57
2022/01/08 11:04:48;;;;;;;12.02;6.63;;;3.40;99.90;;;;;;4998832;28;20392;-57
2022/01/08 11:07:29;;;;;;;12.68;6.70;;;3.40;99.90;;;;;;4999613;28;20030;-57
2022/01/08 11:10:16;;;;;;;10.05;6.13;;;3.40;99.90;;;;;;4998914;28;20145;-55
2022/01/08 11:12:45;;;;;;;8.93;6.20;;;3.40;99.90;;;;;;4999364;28;20076;-58
2022/01/08 11:17:43;;;;;;;10.05;6.50;;;3.40;99.90;;;;;;4999209;28;20113;-57
2022/01/08 11:20:15;;;;;;;14.75;6.90;;;3.40;99.90;;;;;;4999287;28;20023;-57
2022/01/08 11:22:46;;;;;;;11.27;6.47;;;3.40;99.90;;;;;;5000668;28;20104;-58
2022/01/08 11:25:14;;;;;;;14.13;6.57;;;3.40;99.90;;;;;;4998551;28;20041;-57
2022/01/08 11:28:08;;;;;;;11.73;6.47;;;3.40;99.90;;;;;;4999837;28;20073;-57
2022/01/08 11:30:47;;;;;;;12.38;8.05;;;3.40;99.90;;;;;;4999126;28;20038;-57
2022/01/08 11:33:22;;;;;;;9.80;6.60;;;3.40;99.90;;;;;;4998397;28;20044;-57
2022/01/08 11:35:49;;;;;;;11.15;6.93;;;3.40;99.90;;;;;;4999611;28;20025;-57
2022/01/08 11:38:18;;;;;;;8.80;6.40;;;3.40;99.90;;;;;;4998514;28;20472;-55
2022/01/08 11:40:47;;;;;;;12.10;6.85;;;3.40;99.90;;;;;;4999051;28;20439;-57
2022/01/08 11:43:19;;;;;;;8.90;6.70;;;3.50;99.90;;;;;;4999605;28;20093;-58
2022/01/08 11:45:56;;;;;;;14.23;6.65;;;3.50;99.90;;;;;;4999677;28;20021;-59
2022/01/08 11:48:25;;;;;;;7.53;6.38;;;3.50;99.90;;;;;;4998629;28;20034;-57
2022/01/08 11:50:53;;;;;;;8.73;6.15;;;3.50;99.90;;;;;;4999423;28;20021;-58
2022/01/08 11:53:23;;;;;;;10.02;6.18;;;3.60;99.90;;;;;;4998388;28;20205;-57
2022/01/08 11:56:02;;;;;;;9.23;6.60;;;3.60;99.90;;;;;;4982507;28;20113;-59
2022/01/08 11:58:30;;;;;;;10.10;6.28;;;3.60;99.90;;;;;;4998737;28;20157;-58
2022/01/08 12:01:06;;;;;;;8.63;6.53;;;3.70;99.90;;;;;;4999017;28;20017;-56
2022/01/08 12:03:39;;;;;;;11.83;6.93;;;3.70;99.90;;;;;;4998881;28;20409;-57
2022/01/08 12:06:23;;;;;;;11.07;6.97;;;3.70;99.90;;;;;;4999930;28;20041;-58
2022/01/08 12:09:21;;;;;;;12.05;7.00;;;3.80;99.90;;;;;;4998436;28;20440;-58
2022/01/08 12:11:46;;;;;;;11.73;6.93;;;3.80;99.90;;;;;;4998539;28;20100;-56
2022/01/08 12:14:27;;;;;;;11.93;7.00;;;3.80;99.90;;;;;;4997958;28;20503;-58
2022/01/08 12:16:55;;;;;;;13.50;6.63;;;3.80;99.90;;;;;;4999277;28;20030;-58
2022/01/08 12:19:36;;;;;;;13.68;7.10;;;3.80;99.90;;;;;;4998680;28;20018;-56
2022/01/08 12:22:22;;;;;;;14.50;7.18;;;3.70;99.90;;;;;;4998161;28;20029;-58
2022/01/08 12:24:51;;;;;;;13.90;6.87;;;3.70;99.90;;;;;;4997532;28;20468;-57
2022/01/08 12:27:35;;;;;;;11.50;7.47;;;3.70;99.90;;;;;;4998742;28;20105;-58
2022/01/08 12:30:24;;;;;;;13.30;6.80;;;3.70;99.90;;;;;;4997257;28;20072;-56
2022/01/08 12:32:53;;;;;;;14.15;7.35;;;3.60;99.90;;;;;;4998656;28;20026;-58
2022/01/08 12:35:36;;;;;;;15.10;7.63;;;3.60;99.90;;;;;;4996796;28;20511;-57
2022/01/08 12:38:05;;;;;;;8.30;6.68;;;3.70;99.90;;;;;;4998431;28;20052;-58
2022/01/08 12:40:45;;;;;;;12.98;6.43;;;3.70;99.90;;;;;;4998729;28;20044;-58
2022/01/08 12:43:28;;;;;;;9.82;7.22;;;3.70;99.90;;;;;;4999044;28;20361;-56
2022/01/08 12:46:18;;;;;;;12.90;7.90;;;3.70;99.90;;;;;;4999337;28;20083;-57
2022/01/08 12:49:05;;;;;;;8.07;5.97;;;3.80;99.90;;;;;;4998463;28;20026;-58
2022/01/08 12:51:50;;;;;;;10.00;5.85;;;3.80;99.90;;;;;;4997658;28;20022;-59
2022/01/08 12:54:18;;;;;;;13.05;6.82;;;3.80;99.90;;;;;;4997888;28;20289;-58
2022/01/08 12:57:00;;;;;;;11.02;6.43;;;3.80;99.90;;;;;;4999037;28;20109;-58
2022/01/08 12:59:30;;;;;;;10.48;7.25;;;3.70;99.90;;;;;;4998500;28;20030;-58
2022/01/08 13:01:56;;;;;;;7.82;6.22;;;3.70;99.90;;;;;;4998094;28;20281;-58
2022/01/08 13:04:23;;;;;;;8.50;5.90;;;3.70;99.90;;;;;;4997983;28;20018;-58
2022/01/08 13:06:49;;;;;;;11.38;6.25;;;3.70;99.90;;;;;;4998534;28;20473;-57
2022/01/08 13:09:16;;;;;;;9.23;7.40;;;3.70;99.90;;;;;;4997861;28;20482;-57
2022/01/08 13:11:43;;;;;;;10.65;6.55;;;3.60;99.90;;;;;;4997358;28;20610;-59
2022/01/08 13:14:14;;;;;;;10.15;6.40;;;3.60;99.90;;;;;;4997544;28;20018;-58
2022/01/08 13:16:42;;;;;;;10.00;6.65;;;3.60;99.90;;;;;;4998177;28;20476;-56
2022/01/08 13:19:09;;;;;;;9.18;6.07;;;3.60;99.90;;;;;;4997067;28;20029;-54
2022/01/08 13:21:45;;;;;;;7.63;6.00;;;3.60;99.90;;;;;;4997683;28;20416;-57
2022/01/08 13:24:34;;;;;;;16.42;7.50;;;3.60;99.90;;;;;;4997973;28;20212;-59
2022/01/08 13:27:04;;;;;;;14.27;7.00;;;3.60;99.90;;;;;;4989294;28;20034;-58
2022/01/08 13:29:39;;;;;;;12.05;7.13;;;3.60;99.90;;;;;;4997317;28;20495;-58